Otar, Kazakhstan
Current Conditions -  °F | °C
As of 10:00 AM on Tuesday 21 Oct 2014 (Local Time) from UCFM Reporting Station
Light Rain Light Rain  
Wind Chill: 41°   Ceiling: 500
Heat Index: 46°   Visibility: 1.8mi
Dew Point: 45°   Wind: 11mph
Humidity: 93%   Direction: 280°W
Pressure: 30.33"   Gusts: NA
Location:  43.54°N, 75.21°E
Report Text: UCFM 210400Z 28005MPS 3000 -RA BR OVC005 08/07 Q1027 R26/29//55TEMPO 2000 OVC003
Loading
Personal Weather Stations






























Interactive Weather Map
Tropical Storm Tracking
New forecast layout! Learn more

10-Day Weather Forecast

Advertisements
Track Severe Weather on mobile